Time;durP1;ratioP1;P1;durP2;ratioP2;P2;SDS_P1;SDS_P2;PMS_P1;PMS_P2;Temp;Humidity;BMP_temperature;BMP_pressure;BME280_temperature;BME280_humidity;BME280_pressure;Samples;Min_cycle;Max_cycle;Signal;HPM_P1;HPM_P2
2022/01/22 00:01:04;;;;;;;25.85;14.52;;;;;;;3.88;95.16;101394.19;5073089;28;20020;-86
2022/01/22 00:03:30;;;;;;;32.70;19.25;;;;;;;3.76;94.88;101404.56;5047461;28;20028;-86
2022/01/22 00:05:55;;;;;;;25.13;14.95;;;;;;;4.10;93.76;101405.16;5067951;28;20540;-86
2022/01/22 00:08:20;;;;;;;29.42;17.35;;;;;;;3.62;95.09;101406.19;5068233;28;20024;-85
2022/01/22 00:10:47;;;;;;;38.28;18.90;;;;;;;3.93;95.09;101401.72;5068067;28;20051;-86
2022/01/22 00:15:51;;;;;;;35.10;21.00;;;;;;;3.80;94.82;101405.03;5068743;28;20377;-85
2022/01/22 00:18:16;;;;;;;36.58;20.67;;;;;;;3.85;93.87;101414.28;5067748;28;20020;-86
2022/01/22 00:20:42;;;;;;;31.65;18.30;;;;;;;4.08;93.47;101415.31;5068476;28;20029;-86
2022/01/22 00:23:07;;;;;;;27.42;17.10;;;;;;;4.12;93.91;101413.91;5068193;28;20423;-86
2022/01/22 00:25:48;;;;;;;30.38;18.17;;;;;;;4.22;92.86;101404.72;5067760;28;20107;-85
2022/01/22 00:28:13;;;;;;;29.92;16.92;;;;;;;4.18;92.43;101409.66;5067382;28;20032;-86
2022/01/22 00:30:39;;;;;;;33.22;19.25;;;;;;;4.21;92.19;101403.88;5067558;28;20021;-85
2022/01/22 00:33:04;;;;;;;29.25;17.10;;;;;;;4.08;93.58;101404.50;5068273;28;20032;-86
2022/01/22 00:35:29;;;;;;;25.95;16.13;;;;;;;4.18;93.29;101398.84;5067473;28;20056;-86
2022/01/22 00:37:55;;;;;;;31.63;17.23;;;;;;;4.07;93.16;101392.84;5068245;28;20484;-86
2022/01/22 00:40:21;;;;;;;34.17;18.63;;;;;;;4.15;92.84;101391.13;5067490;28;20880;-85
2022/01/22 00:42:48;;;;;;;29.95;16.85;;;;;;;4.30;92.25;101400.09;5067359;28;20056;-84
2022/01/22 00:45:14;;;;;;;30.23;17.55;;;;;;;3.90;92.47;101402.09;5067298;28;20024;-85
2022/01/22 00:47:40;;;;;;;27.23;17.70;;;;;;;4.01;91.91;101404.38;5082954;28;20031;-85
2022/01/22 00:50:08;;;;;;;30.50;18.75;;;;;;;3.88;93.48;101398.75;5087523;28;20070;-86
2022/01/22 00:52:34;;;;;;;26.67;15.60;;;;;;;3.80;94.25;101405.88;5087333;28;20320;-85
2022/01/22 00:54:59;;;;;;;30.92;15.20;;;;;;;4.30;92.75;101399.25;5084962;28;20156;-86
2022/01/22 00:57:25;;;;;;;29.38;15.60;;;;;;;4.26;91.63;101393.38;5066573;28;20486;-86
2022/01/22 00:59:50;;;;;;;39.42;20.75;;;;;;;3.71;93.62;101393.47;5066825;28;20020;-85
2022/01/22 01:05:18;;;;;;;43.25;17.98;;;;;;;3.88;94.47;101399.59;5059403;28;20075;-86
2022/01/22 01:07:44;;;;;;;30.95;16.85;;;;;;;3.71;94.99;101396.16;5067678;28;20075;-85
2022/01/22 01:10:13;;;;;;;30.65;15.73;;;;;;;4.19;92.88;101397.84;5066833;28;20025;-86
2022/01/22 01:12:40;;;;;;;23.73;15.85;;;;;;;4.18;91.50;101397.00;5048963;28;20486;-86
2022/01/22 01:15:20;;;;;;;23.92;14.85;;;;;;;4.26;90.97;101404.19;5066181;28;20024;-86
2022/01/22 01:18:03;;;;;;;26.92;14.82;;;;;;;4.02;92.01;101406.06;5066888;28;20027;-86
2022/01/22 01:34:18;;;;;;;22.95;13.07;;;;;;;4.27;92.22;101392.34;5067284;28;20071;-86
2022/01/22 01:36:44;;;;;;;22.70;13.02;;;;;;;4.14;90.86;101397.53;5066497;28;20106;-86
2022/01/22 01:39:13;;;;;;;23.27;14.15;;;;;;;4.33;91.19;101398.91;5066581;28;20021;-86
2022/01/22 01:44:07;;;;;;;26.55;16.42;;;;;;;3.97;93.08;101397.66;5065982;28;20082;-85
2022/01/22 01:46:33;;;;;;;27.42;13.57;;;;;;;4.05;90.86;101396.75;5073290;28;20450;-85
2022/01/22 01:48:59;;;;;;;26.00;13.18;;;;;;;4.04;91.47;101403.19;5068009;28;20126;-86
2022/01/22 01:51:29;;;;;;;22.77;14.43;;;;;;;4.01;91.95;101398.97;5068455;28;20028;-85
2022/01/22 01:54:02;;;;;;;22.67;13.00;;;;;;;3.66;93.97;101401.25;5085815;28;20475;-85
2022/01/22 01:59:15;;;;;;;20.83;12.45;;;;;;;3.72;94.01;101400.53;5083961;28;20047;-86
2022/01/22 02:01:41;;;;;;;22.90;12.98;;;;;;;3.85;93.80;101399.94;5070138;28;20234;-85
2022/01/22 02:04:20;;;;;;;19.70;12.18;;;;;;;4.20;92.14;101397.66;5083307;28;20060;-86
2022/01/22 02:06:45;;;;;;;22.65;13.55;;;;;;;4.14;91.50;101400.22;5047581;28;20499;-86
2022/01/22 02:09:11;;;;;;;23.17;14.45;;;;;;;4.07;91.72;101405.50;5047119;28;20046;-85
2022/01/22 02:11:40;;;;;;;24.88;12.32;;;;;;;3.84;91.94;101409.88;5065059;28;20036;-86
2022/01/22 02:23:30;;;;;;;17.23;10.75;;;;;;;4.16;92.04;101406.28;5064766;28;20388;-85
2022/01/22 02:25:08;;;;;;;23.00;13.77;;;;;;;3.79;93.43;101406.91;5066359;28;20170;-86
2022/01/22 02:27:33;;;;;;;25.90;13.07;;;;;;;3.99;93.07;101405.59;5047590;28;20135;-85
2022/01/22 02:29:58;;;;;;;24.92;13.00;;;;;;;4.04;92.42;101397.78;5063137;28;20716;-85
2022/01/22 02:35:05;;;;;;;20.17;13.15;;;;;;;4.09;92.37;101385.41;5065524;28;20392;-85
2022/01/22 02:37:36;;;;;;;18.95;11.27;;;;;;;4.06;92.58;101385.78;5080727;28;20547;-84
2022/01/22 02:40:08;;;;;;;22.65;14.55;;;;;;;3.96;91.71;101385.19;5083953;28;20114;-86
2022/01/22 02:42:35;;;;;;;21.83;11.98;;;;;;;4.13;92.61;101379.66;5060613;28;20024;-85
2022/01/22 02:45:08;;;;;;;21.00;11.93;;;;;;;3.96;92.28;101383.34;5081811;28;20028;-86
2022/01/22 02:47:34;;;;;;;28.15;16.65;;;;;;;3.72;94.50;101385.19;5078113;28;20047;-85
2022/01/22 02:49:59;;;;;;;38.13;15.75;;;;;;;3.98;92.82;101383.16;5047563;28;20033;-85
2022/01/22 02:52:38;;;;;;;26.15;15.95;;;;;;;4.13;92.18;101385.06;5047256;28;20029;-84
2022/01/22 02:55:07;;;;;;;27.40;17.88;;;;;;;3.80;92.95;101389.69;5065643;28;20032;-86
2022/01/22 02:57:34;;;;;;;26.48;12.93;;;;;;;3.84;93.40;101388.28;5068740;28;20367;-86
2022/01/22 03:00:00;;;;;;;26.50;17.95;;;;;;;3.44;95.45;101390.25;5065343;28;20029;-86
2022/01/22 03:02:26;;;;;;;27.80;14.75;;;;;;;3.85;94.38;101384.59;5062479;28;20542;-85
2022/01/22 03:04:51;;;;;;;25.00;15.48;;;;;;;3.90;93.84;101386.75;5063013;28;20017;-84
2022/01/22 03:07:17;;;;;;;24.08;15.68;;;;;;;3.86;93.72;101390.84;5062685;28;20029;-86
2022/01/22 03:09:45;;;;;;;26.67;16.55;;;;;;;3.45;96.41;101400.03;5062016;28;20036;-85
2022/01/22 03:23:05;;;;;;;;;;;;;;;3.66;95.96;101385.88;5064293;28;20131;-86
2022/01/22 03:27:45;;;;;;;29.23;15.98;;;;;;;3.71;95.32;101390.75;5062156;28;20040;-85
2022/01/22 03:30:10;;;;;;;30.95;19.52;;;;;;;3.87;94.43;101399.75;5063750;28;20028;-86
2022/01/22 03:32:41;;;;;;;26.42;15.85;;;;;;;4.26;92.76;101395.22;5064184;28;20064;-85
2022/01/22 03:37:51;;;;;;;24.85;16.10;;;;;;;4.32;92.24;101400.75;5062505;28;20040;-86
2022/01/22 03:40:18;;;;;;;26.75;16.88;;;;;;;4.18;91.76;101398.84;5061556;28;20034;-86
2022/01/22 03:42:44;;;;;;;35.28;20.88;;;;;;;3.68;94.77;101402.75;5063761;28;20020;-86
2022/01/22 03:45:11;;;;;;;31.88;19.00;;;;;;;3.98;93.55;101402.06;5063576;28;20020;-86
2022/01/22 03:47:37;;;;;;;23.88;14.25;;;;;;;4.30;93.24;101402.78;5065327;28;20055;-86
2022/01/22 03:50:04;;;;;;;28.58;14.93;;;;;;;4.16;93.74;101395.50;5065065;28;20396;-86
2022/01/22 03:52:29;;;;;;;19.55;13.65;;;;;;;4.28;91.51;101396.75;5064845;28;20032;-86
2022/01/22 03:54:54;;;;;;;28.38;17.02;;;;;;;3.93;93.50;101401.72;5046761;28;20017;-85
2022/01/22 03:57:22;;;;;;;32.90;17.25;;;;;;;4.31;92.30;101401.75;5064123;28;20104;-85
2022/01/22 03:59:48;;;;;;;28.95;18.70;;;;;;;4.11;92.58;101406.00;5046591;28;20603;-85
2022/01/22 04:05:02;;;;;;;35.60;17.30;;;;;;;4.19;94.04;101404.06;5065378;28;20135;-85
2022/01/22 04:09:56;;;;;;;34.80;19.27;;;;;;;4.02;94.69;101400.66;5064669;28;20028;-85
2022/01/22 04:12:31;;;;;;;33.45;18.90;;;;;;;4.26;93.48;101400.63;5064026;28;20028;-85
2022/01/22 04:14:58;;;;;;;33.03;19.92;;;;;;;3.98;93.15;101404.75;5064140;28;20031;-86
2022/01/22 04:24:46;;;;;;;28.95;15.82;;;;;;;4.30;92.82;101401.94;5064780;28;20029;-86
2022/01/22 04:26:06;;;;;;;29.15;16.88;;;;;;;4.22;93.59;101405.56;5002616;28;20069;-85
2022/01/22 04:28:31;;;;;;;34.90;17.98;;;;;;;4.45;92.75;101402.00;5041918;28;20132;-86
2022/01/22 04:30:57;;;;;;;37.85;22.80;;;;;;;4.13;92.93;101407.47;5064797;28;20123;-85
2022/01/22 04:33:22;;;;;;;28.00;16.50;;;;;;;4.25;92.37;101404.38;5064594;28;20051;-86
2022/01/22 04:35:47;;;;;;;38.53;22.55;;;;;;;3.99;93.72;101405.59;5062458;28;20361;-86
2022/01/22 04:38:13;;;;;;;31.20;18.60;;;;;;;4.37;93.50;101415.56;5044792;28;20029;-85
2022/01/22 04:40:38;;;;;;;31.45;19.13;;;;;;;4.15;93.58;101413.53;5043908;28;20017;-86
2022/01/22 04:43:05;;;;;;;31.00;18.77;;;;;;;3.93;94.94;101415.22;5044538;28;20425;-86
2022/01/22 04:56:13;;;;;;;28.17;17.60;;;;;;;4.47;92.36;101412.63;5068351;28;20114;-85
2022/01/22 04:58:38;;;;;;;35.70;20.25;;;;;;;4.38;92.51;101419.94;5067322;28;20024;-86
2022/01/22 05:01:04;;;;;;;28.00;17.67;;;;;;;4.60;90.94;101411.97;5056210;28;20043;-86
2022/01/22 05:03:29;;;;;;;36.17;22.55;;;;;;;3.79;94.90;101424.94;5047658;28;20543;-85
2022/01/22 05:08:38;;;;;;;34.67;20.80;;;;;;;4.05;95.91;101403.00;5042809;28;20040;-83
2022/01/22 05:11:03;;;;;;;35.95;18.35;;;;;;;3.93;94.93;101409.81;5047733;28;20430;-85
2022/01/22 05:13:29;;;;;;;34.30;19.95;;;;;;;3.99;96.42;101403.72;5046789;28;20446;-86
2022/01/22 05:15:54;;;;;;;40.05;24.05;;;;;;;3.99;95.01;101406.41;5029585;28;20017;-86
2022/01/22 05:18:19;;;;;;;31.05;19.52;;;;;;;4.37;94.50;101411.03;5047117;28;20075;-85
2022/01/22 05:20:52;;;;;;;32.60;17.30;;;;;;;4.35;92.97;101410.38;5047692;28;20152;-86
2022/01/22 05:23:22;;;;;;;37.80;18.85;;;;;;;4.44;93.20;101408.41;5046938;28;20036;-85
2022/01/22 05:25:54;;;;;;;31.77;19.60;;;;;;;4.58;92.33;101408.63;5046877;28;20045;-85
2022/01/22 05:31:31;;;;;;;28.92;18.88;;;;;;;4.42;93.00;101407.75;5047598;28;20107;-85
2022/01/22 05:39:24;;;;;;;;;;;;;;;4.57;91.78;101420.44;5067726;28;20550;-86
2022/01/22 05:41:50;;;;;;;26.13;15.82;;;;;;;4.92;91.07;101414.53;5067001;28;20041;-85
2022/01/22 05:44:16;;;;;;;34.97;19.05;;;;;;;4.57;92.73;101428.56;5048464;28;20032;-85
2022/01/22 05:46:41;;;;;;;37.85;22.52;;;;;;;4.43;93.85;101426.47;5074376;28;20193;-86
2022/01/22 05:49:06;;;;;;;32.25;18.42;;;;;;;4.57;94.26;101423.16;5068763;28;20024;-86
2022/01/22 05:51:32;;;;;;;29.40;17.63;;;;;;;4.37;94.58;101426.38;5086552;28;20092;-86
2022/01/22 05:54:34;;;;;;;36.35;20.15;;;;;;;4.51;92.27;101420.19;5086777;28;20550;-86
2022/01/22 05:59:44;;;;;;;24.02;15.45;;;;;;;4.82;92.32;101431.03;5087036;28;20104;-86
2022/01/22 06:02:17;;;;;;;29.27;18.30;;;;;;;4.74;91.87;101434.66;5085825;28;20043;-85
2022/01/22 06:04:43;;;;;;;25.15;13.82;;;;;;;4.82;91.98;101437.25;5086774;28;20557;-85
2022/01/22 06:07:09;;;;;;;22.85;14.05;;;;;;;4.81;91.55;101440.97;5086205;28;20028;-84
2022/01/22 06:09:38;;;;;;;26.15;16.10;;;;;;;4.88;91.97;101446.50;5087086;28;20038;-85
2022/01/22 06:12:16;;;;;;;41.72;21.98;;;;;;;4.34;97.93;101446.47;5086118;28;20143;-86
2022/01/22 06:14:42;;;;;;;29.00;17.45;;;;;;;4.66;94.02;101449.06;5067442;28;20040;-85
2022/01/22 06:17:08;;;;;;;35.03;18.05;;;;;;;4.65;92.87;101450.94;5065874;28;20530;-86
2022/01/22 06:19:33;;;;;;;32.28;17.15;;;;;;;4.82;92.28;101447.22;5066196;28;20048;-84
2022/01/22 06:21:59;;;;;;;26.38;11.88;;;;;;;5.01;90.58;101446.69;5065533;28;20024;-85
2022/01/22 06:24:24;;;;;;;26.17;16.15;;;;;;;5.00;91.15;101450.41;5065584;28;20025;-84
2022/01/22 06:26:54;;;;;;;28.58;18.15;;;;;;;4.91;90.94;101448.81;5065698;28;20054;-85
2022/01/22 06:29:19;;;;;;;31.02;15.77;;;;;;;5.10;90.21;101455.56;5065357;28;20025;-86
2022/01/22 06:31:44;;;;;;;23.50;14.32;;;;;;;4.98;90.28;101451.63;5066054;28;20035;-85
2022/01/22 06:34:10;;;;;;;28.42;14.57;;;;;;;4.91;91.31;101456.94;5065577;28;20109;-85
2022/01/22 06:36:35;;;;;;;27.50;15.75;;;;;;;5.09;89.86;101450.31;5065632;28;20131;-83
2022/01/22 06:39:12;;;;;;;27.92;16.73;;;;;;;4.83;91.57;101454.31;5048343;28;20060;-84
2022/01/22 06:41:45;;;;;;;29.70;15.65;;;;;;;4.69;92.66;101459.50;5065947;28;20032;-86
2022/01/22 06:44:17;;;;;;;22.65;11.65;;;;;;;4.77;91.74;101470.25;5065737;28;20116;-85
2022/01/22 06:49:47;;;;;;;;;;;;;;;4.85;92.74;101465.78;5081223;28;20047;-85
2022/01/22 06:52:12;;;;;;;28.70;17.07;;;;;;;5.11;91.03;101472.59;5072963;28;19916;-85
2022/01/22 06:54:39;;;;;;;24.95;14.45;;;;;;;5.11;90.71;101469.88;5065148;28;20035;-85
2022/01/22 06:57:04;;;;;;;24.05;12.85;;;;;;;5.02;91.79;101472.69;5065515;28;20072;-86
2022/01/22 06:59:30;;;;;;;26.70;14.30;;;;;;;5.07;91.00;101465.88;5064875;28;20040;-86
2022/01/22 07:01:56;;;;;;;23.23;11.32;;;;;;;4.94;91.62;101469.25;5065487;28;20054;-86
2022/01/22 07:04:22;;;;;;;25.27;12.88;;;;;;;4.81;92.40;101480.69;5065457;28;20028;-85
2022/01/22 07:06:47;;;;;;;23.35;12.63;;;;;;;4.71;92.93;101484.50;5064710;28;20097;-86
2022/01/22 07:09:12;;;;;;;24.35;13.18;;;;;;;4.96;92.35;101486.13;5064942;28;20024;-84
2022/01/22 07:11:38;;;;;;;40.88;18.77;;;;;;;4.35;94.97;101482.44;5065287;28;20354;-84
2022/01/22 07:14:03;;;;;;;20.27;11.63;;;;;;;5.11;92.44;101492.38;5064153;28;20028;-86
2022/01/22 07:16:29;;;;;;;21.83;13.10;;;;;;;4.85;92.31;101482.84;5047514;28;20023;-86
2022/01/22 07:18:59;;;;;;;19.50;11.55;;;;;;;4.96;92.79;101489.66;5047350;28;20075;-86
2022/01/22 07:21:27;;;;;;;23.48;12.23;;;;;;;4.84;92.50;101499.25;5065184;28;20028;-85
2022/01/22 07:26:21;;;;;;;23.20;11.48;;;;;;;5.13;90.67;101503.84;5064515;28;20434;-85
2022/01/22 07:28:46;;;;;;;24.67;12.98;;;;;;;4.73;93.14;101498.66;5063811;28;20037;-85
2022/01/22 07:31:12;;;;;;;28.00;15.00;;;;;;;4.82;92.88;101506.69;5065190;28;20020;-86
2022/01/22 07:36:21;;;;;;;25.58;12.43;;;;;;;4.93;92.34;101503.53;5060480;28;20072;-86
2022/01/22 07:38:46;;;;;;;21.08;11.52;;;;;;;4.62;94.42;101518.00;5065111;28;20029;-86
2022/01/22 07:41:12;;;;;;;34.47;15.15;;;;;;;4.82;92.94;101514.81;5064761;28;20526;-85
2022/01/22 07:43:38;;;;;;;26.55;16.63;;;;;;;4.66;93.96;101513.91;5064712;28;20032;-86
2022/01/22 07:46:06;;;;;;;23.67;12.88;;;;;;;4.72;93.04;101515.88;5067823;28;20020;-86
2022/01/22 07:48:31;;;;;;;30.60;12.35;;;;;;;5.12;92.91;101520.25;5085035;28;20453;-86
2022/01/22 07:50:56;;;;;;;25.58;12.20;;;;;;;5.13;91.59;101519.22;5085410;28;20099;-85
2022/01/22 07:53:24;;;;;;;22.52;12.05;;;;;;;5.20;91.07;101525.56;5085113;28;20138;-85
2022/01/22 07:55:50;;;;;;;21.63;10.70;;;;;;;5.02;91.66;101529.44;5085397;28;20028;-86
2022/01/22 07:58:15;;;;;;;20.80;10.85;;;;;;;4.94;91.56;101526.00;5084446;28;20511;-86
2022/01/22 08:00:40;;;;;;;24.08;13.07;;;;;;;4.62;94.64;101528.78;5076767;28;20081;-85
2022/01/22 08:03:06;;;;;;;27.02;16.13;;;;;;;4.82;93.05;101525.63;5064404;28;20082;-86
2022/01/22 08:05:32;;;;;;;24.63;13.38;;;;;;;5.19;91.28;101526.59;5064775;28;20029;-85
2022/01/22 08:07:57;;;;;;;19.80;11.00;;;;;;;5.25;90.70;101528.56;5046860;28;20025;-85
2022/01/22 08:10:23;;;;;;;22.60;13.10;;;;;;;5.16;91.38;101529.69;5064912;28;20612;-85
2022/01/22 08:12:50;;;;;;;23.20;10.75;;;;;;;5.20;91.01;101524.72;5064323;28;20265;-86
2022/01/22 08:15:16;;;;;;;30.75;14.00;;;;;;;5.33;90.23;101521.41;5064341;28;20032;-85
2022/01/22 08:17:42;;;;;;;24.75;10.65;;;;;;;5.25;89.95;101525.84;5064797;28;20055;-85
2022/01/22 08:22:53;;;;;;;19.98;10.60;;;;;;;5.43;90.34;101521.94;5064210;28;20048;-86
2022/01/22 08:25:19;;;;;;;23.52;12.00;;;;;;;5.30;90.48;101519.03;5066949;28;20032;-85
2022/01/22 08:28:53;;;;;;;25.80;12.82;;;;;;;5.16;90.91;101523.41;5067946;28;20021;-86
2022/01/22 08:30:45;;;;;;;26.35;13.10;;;;;;;5.12;90.83;101533.78;5068164;28;20462;-85
2022/01/22 08:36:05;;;;;;;24.08;10.77;;;;;;;5.23;90.76;101536.00;5030276;28;20099;-85
2022/01/22 08:38:31;;;;;;;21.35;11.30;;;;;;;5.09;91.66;101536.84;5067946;28;20029;-85
2022/01/22 08:40:57;;;;;;;28.70;14.20;;;;;;;4.89;92.04;101531.97;5071345;28;20129;-85
2022/01/22 08:43:23;;;;;;;22.48;11.20;;;;;;;5.38;90.58;101529.78;5067753;28;20039;-85
2022/01/22 08:48:33;;;;;;;27.00;11.50;;;;;;;5.67;89.63;101519.13;5068647;28;20047;-84
2022/01/22 08:50:59;;;;;;;25.48;12.70;;;;;;;5.22;90.69;101523.53;5068015;28;20021;-85
2022/01/22 08:53:25;;;;;;;22.70;11.88;;;;;;;5.32;91.91;101525.94;5049944;28;20110;-82
2022/01/22 08:55:51;;;;;;;22.95;12.52;;;;;;;5.45;90.88;101528.00;5067833;28;20407;-85
2022/01/22 08:58:16;;;;;;;20.00;9.65;;;;;;;5.48;89.87;101526.78;5067401;28;20043;-85
2022/01/22 09:00:41;;;;;;;23.67;11.48;;;;;;;5.49;90.29;101529.28;5067375;28;20489;-85
2022/01/22 09:03:07;;;;;;;26.38;12.73;;;;;;;5.30;91.22;101540.69;5067971;28;20035;-85
2022/01/22 09:05:35;;;;;;;31.88;15.38;;;;;;;4.96;93.54;101541.03;5049805;28;20031;-86
2022/01/22 09:08:01;;;;;;;29.98;14.20;;;;;;;5.45;91.49;101530.69;5067614;28;20036;-85
2022/01/22 09:10:27;;;;;;;26.80;12.07;;;;;;;5.27;92.68;101541.88;5067462;28;20361;-83
2022/01/22 09:12:52;;;;;;;30.08;15.57;;;;;;;5.17;94.34;101542.16;5049259;28;20062;-85
2022/01/22 09:15:18;;;;;;;39.47;21.10;;;;;;;4.82;93.80;101539.13;5067730;28;20039;-85
2022/01/22 09:17:47;;;;;;;36.10;20.08;;;;;;;4.90;94.13;101539.06;5058838;28;20040;-85
2022/01/22 09:23:17;;;;;;;28.80;18.45;;;;;;;5.44;92.40;101534.44;5046812;28;20078;-85
2022/01/22 09:25:43;;;;;;;33.63;20.38;;;;;;;5.28;92.66;101540.03;5047084;28;20041;-85
2022/01/22 09:28:11;;;;;;;37.03;17.70;;;;;;;5.46;91.28;101534.25;5046660;28;20040;-86
2022/01/22 09:30:37;;;;;;;32.75;21.15;;;;;;;5.28;91.36;101545.44;5058360;28;20028;-86
2022/01/22 09:33:03;;;;;;;31.80;17.48;;;;;;;5.67;90.31;101548.91;5067033;28;20025;-86
2022/01/22 09:35:28;;;;;;;30.92;15.35;;;;;;;5.64;90.89;101546.53;5066757;28;20047;-84
2022/01/22 09:37:53;;;;;;;23.63;12.93;;;;;;;5.65;90.40;101559.91;5066389;28;20475;-86
2022/01/22 09:40:20;;;;;;;25.38;13.93;;;;;;;5.44;90.65;101564.19;5066943;28;20028;-86
2022/01/22 09:42:46;;;;;;;32.42;16.95;;;;;;;5.36;92.55;101558.88;5066903;28;20025;-85
2022/01/22 09:45:13;;;;;;;28.33;15.52;;;;;;;5.42;91.55;101560.84;5066755;28;20433;-85
2022/01/22 09:47:45;;;;;;;26.02;13.95;;;;;;;5.34;91.74;101569.03;5066752;28;20391;-86
2022/01/22 09:50:11;;;;;;;36.25;16.13;;;;;;;5.28;91.92;101565.22;5048691;28;20040;-85
2022/01/22 09:52:37;;;;;;;37.97;20.98;;;;;;;4.84;93.81;101566.81;5066760;28;20048;-86
2022/01/22 09:55:03;;;;;;;27.17;14.38;;;;;;;5.59;91.92;101566.06;5066709;28;20020;-86
2022/01/22 09:57:28;;;;;;;29.25;17.13;;;;;;;5.32;92.32;101574.63;5066546;28;20025;-85
2022/01/22 09:59:53;;;;;;;27.90;19.15;;;;;;;5.16;92.79;101569.41;5066234;28;20363;-86
2022/01/22 10:02:21;;;;;;;34.47;18.85;;;;;;;5.36;91.92;101572.41;5066108;28;20438;-86
2022/01/22 10:07:52;;;;;;;27.60;16.50;;;;;;;5.48;91.58;101578.19;5065500;28;20522;-86
2022/01/22 10:10:17;;;;;;;38.60;19.45;;;;;;;5.16;92.54;101575.66;5065716;28;20029;-86
2022/01/22 10:12:48;;;;;;;43.42;23.02;;;;;;;4.87;93.93;101575.38;5065380;28;20033;-85
2022/01/22 10:15:19;;;;;;;42.53;23.73;;;;;;;4.97;94.47;101574.28;5065841;28;20016;-86
2022/01/22 10:17:51;;;;;;;37.83;21.35;;;;;;;5.18;94.68;101581.72;5066251;28;20024;-86
2022/01/22 10:20:28;;;;;;;32.33;19.27;;;;;;;5.19;93.65;101571.72;5066211;28;20407;-85
2022/01/22 10:22:58;;;;;;;41.63;20.98;;;;;;;5.29;92.19;101576.88;5048001;28;20115;-86
2022/01/22 10:25:31;;;;;;;37.88;20.00;;;;;;;5.24;93.74;101580.13;5063167;28;20202;-86
2022/01/22 10:27:59;;;;;;;31.42;16.55;;;;;;;5.27;92.40;101581.63;5064770;28;20055;-85
2022/01/22 10:30:34;;;;;;;28.33;15.38;;;;;;;5.33;92.12;101572.78;5074120;28;20066;-86
2022/01/22 10:33:30;;;;;;;29.77;15.85;;;;;;;5.34;92.77;101574.44;5060091;28;20056;-86
2022/01/22 10:36:12;;;;;;;22.92;13.45;;;;;;;5.40;92.08;101579.13;5052141;28;20044;-86
2022/01/22 10:38:40;;;;;;;24.08;14.05;;;;;;;5.24;93.32;101580.97;5065362;28;20547;-86
2022/01/22 10:41:07;;;;;;;33.70;19.00;;;;;;;4.85;96.22;101579.28;5064831;28;20475;-85
2022/01/22 10:43:33;;;;;;;32.33;18.48;;;;;;;5.28;94.54;101576.03;5065008;28;20029;-85
2022/01/22 10:46:19;;;;;;;27.90;15.48;;;;;;;5.59;92.54;101587.72;5067756;28;20800;-85
2022/01/22 10:48:55;;;;;;;34.10;17.08;;;;;;;5.37;92.19;101582.19;5042415;28;20035;-85
2022/01/22 10:51:20;;;;;;;26.65;12.98;;;;;;;5.74;91.64;101585.00;5062658;28;20028;-85
2022/01/22 10:54:01;;;;;;;27.40;13.60;;;;;;;5.75;91.53;101583.97;5084333;28;20024;-85
2022/01/22 10:56:29;;;;;;;24.83;13.13;;;;;;;5.88;90.45;101590.59;5082287;28;20023;-85
2022/01/22 10:59:02;;;;;;;34.30;16.30;;;;;;;5.61;91.86;101580.25;5059546;28;20050;-85
2022/01/22 11:01:51;;;;;;;27.55;12.07;;;;;;;5.60;91.08;101589.38;5075498;28;20055;-85
2022/01/22 11:07:17;;;;;;;23.95;15.13;;;;;;;5.68;91.19;101581.19;5065156;28;20131;-86
2022/01/22 11:09:43;;;;;;;28.17;16.08;;;;;;;5.27;93.40;101589.75;5065484;28;20123;-86
2022/01/22 11:12:09;;;;;;;30.38;16.13;;;;;;;5.61;93.10;101582.97;5065046;28;20028;-85
2022/01/22 11:14:37;;;;;;;29.90;17.17;;;;;;;5.23;92.22;101584.69;5065148;28;20024;-85
2022/01/22 11:17:05;;;;;;;26.58;16.67;;;;;;;5.48;92.66;101581.75;5065246;28;20538;-86
2022/01/22 11:19:32;;;;;;;39.72;19.23;;;;;;;5.46;92.51;101574.81;5065090;28;20055;-85
2022/01/22 11:22:08;;;;;;;27.30;14.70;;;;;;;5.73;92.03;101577.91;5065010;28;20537;-86
2022/01/22 11:24:37;;;;;;;32.75;18.55;;;;;;;5.34;92.61;101569.03;5063641;28;20111;-86
2022/01/22 11:27:05;;;;;;;31.10;16.83;;;;;;;5.90;92.06;101570.41;5064028;28;20446;-86
2022/01/22 11:29:40;;;;;;;28.15;15.55;;;;;;;6.07;90.33;101575.66;5063169;28;20028;-85
2022/01/22 11:32:09;;;;;;;19.58;10.80;;;;;;;6.16;90.02;101574.50;5061179;28;20043;-86
2022/01/22 11:34:37;;;;;;;30.27;15.30;;;;;;;5.95;90.13;101578.84;5045545;28;20794;-86
2022/01/22 11:37:08;;;;;;;29.38;14.48;;;;;;;5.75;90.65;101575.00;5075268;28;20051;-85
2022/01/22 11:39:46;;;;;;;21.92;12.90;;;;;;;6.03;90.18;101585.16;5070135;28;20150;-85
2022/01/22 11:42:13;;;;;;;21.85;11.75;;;;;;;6.22;89.60;101585.63;5064044;28;20036;-85
2022/01/22 11:45:00;;;;;;;17.45;9.85;;;;;;;6.33;88.81;101576.13;5064350;28;20028;-85
2022/01/22 11:47:26;;;;;;;25.55;12.52;;;;;;;6.37;87.98;101583.69;5063418;28;20116;-86
2022/01/22 11:50:10;;;;;;;23.10;12.57;;;;;;;6.42;88.20;101585.84;5065366;28;20025;-84
2022/01/22 11:52:41;;;;;;;18.73;10.52;;;;;;;6.35;88.01;101582.19;5065249;28;20028;-85
2022/01/22 11:55:12;;;;;;;20.17;12.60;;;;;;;5.91;89.34;101591.06;5046168;28;20040;-85
2022/01/22 11:57:38;;;;;;;23.33;11.32;;;;;;;6.17;88.62;101592.44;5046301;28;20036;-85
2022/01/22 12:00:22;;;;;;;22.35;12.95;;;;;;;5.76;89.85;101571.25;5066642;28;20064;-85
2022/01/22 12:03:08;;;;;;;21.92;11.60;;;;;;;6.08;89.54;101574.63;5068864;28;20021;-85
2022/01/22 12:09:06;;;;;;;16.88;10.05;;;;;;;6.18;89.67;101580.56;5065889;28;20391;-85
2022/01/22 12:14:47;;;;;;;19.27;9.57;;;;;;;5.84;89.49;101573.88;5068364;28;20572;-85
2022/01/22 12:17:18;;;;;;;;;;;;;;;5.86;90.67;101562.88;5068773;28;20103;-85
2022/01/22 12:22:39;;;;;;;15.73;7.93;;;;;;;5.77;90.76;101565.69;5068547;28;20033;-85
2022/01/22 12:25:07;;;;;;;18.90;8.43;;;;;;;5.92;90.31;101570.25;5068301;28;20028;-85
2022/01/22 12:27:46;;;;;;;15.27;6.50;;;;;;;6.03;89.99;101563.50;5068084;28;20024;-85
2022/01/22 12:30:13;;;;;;;15.00;7.88;;;;;;;5.62;91.07;101554.84;5068115;28;20039;-85
2022/01/22 12:32:51;;;;;;;12.38;6.75;;;;;;;5.77;90.46;101554.00;5068192;28;20024;-85
2022/01/22 12:35:32;;;;;;;12.63;6.18;;;;;;;5.91;90.27;101561.28;5068000;28;20040;-86
2022/01/22 12:38:19;;;;;;;13.18;5.38;;;;;;;5.78;90.78;101556.53;5067571;28;20045;-85
2022/01/22 12:40:46;;;;;;;10.23;5.03;;;;;;;5.82;90.52;101559.69;5050651;28;20196;-85
2022/01/22 12:43:25;;;;;;;9.77;5.53;;;;;;;5.79;90.89;101565.50;5049875;28;20055;-85
2022/01/22 12:45:55;;;;;;;13.98;6.90;;;;;;;5.78;90.60;101566.50;5068917;28;20605;-85
2022/01/22 12:51:09;;;;;;;14.35;6.88;;;;;;;5.71;91.43;101563.72;5081619;28;20498;-86
2022/01/22 12:53:37;;;;;;;11.05;5.75;;;;;;;5.77;90.51;101564.84;5067637;28;20479;-86
2022/01/22 12:56:35;;;;;;;12.23;6.38;;;;;;;5.98;89.52;101565.94;5067258;28;20024;-86
2022/01/22 12:58:48;;;;;;;16.58;7.50;;;;;;;6.04;89.75;101573.31;5066846;28;20032;-86
2022/01/22 13:01:22;;;;;;;16.25;8.75;;;;;;;5.70;90.74;101568.28;5067254;28;20059;-85
2022/01/22 13:03:50;;;;;;;25.45;8.10;;;;;;;5.32;92.32;101573.78;5083316;28;20067;-85
2022/01/22 13:06:19;;;;;;;16.95;7.80;;;;;;;5.78;91.14;101569.22;5067373;28;20031;-85
2022/01/22 13:08:44;;;;;;;16.13;9.18;;;;;;;5.75;91.14;101570.44;5067285;28;20051;-86
2022/01/22 13:11:13;;;;;;;14.65;7.03;;;;;;;6.09;90.06;101575.47;5066558;28;20032;-84
2022/01/22 13:13:40;;;;;;;11.80;5.90;;;;;;;5.94;89.78;101581.69;5045732;28;20029;-85
2022/01/22 13:16:08;;;;;;;14.23;6.60;;;;;;;5.86;90.55;101584.53;5046972;28;20503;-85
2022/01/22 13:18:48;;;;;;;12.55;5.57;;;;;;;6.06;89.84;101582.94;5047093;28;20120;-86
2022/01/22 13:21:16;;;;;;;13.82;5.38;;;;;;;6.03;89.18;101580.59;5047032;28;20025;-85
2022/01/22 13:23:42;;;;;;;10.80;5.03;;;;;;;6.09;89.07;101580.88;5029646;28;20032;-85
2022/01/22 13:26:09;;;;;;;15.77;5.85;;;;;;;6.05;89.43;101585.81;5046920;28;20416;-86
2022/01/22 13:28:36;;;;;;;17.60;6.40;;;;;;;6.16;89.46;101582.63;5046989;28;20033;-86
2022/01/22 13:31:15;;;;;;;10.73;5.70;;;;;;;5.68;90.20;101596.56;5057999;28;20036;-86